createdAt,value
2023-10-28T00:04:36.246Z,95599.63
2023-10-28T00:09:41.516Z,95601.75
2023-10-28T00:14:44.696Z,95605.06
2023-10-28T00:19:49.695Z,95599.94
2023-10-28T00:24:52.876Z,95604.09
2023-10-28T00:29:56.065Z,95603.75
2023-10-28T00:35:01.488Z,95615.97
2023-10-28T00:40:07.127Z,95605.72
2023-10-28T00:45:12.811Z,95600.78
2023-10-28T00:50:18.675Z,95604.91
2023-10-28T00:55:24.049Z,95601.78
2023-10-28T01:00:27.697Z,95600.25
2023-10-28T01:05:34.854Z,95606.69
2023-10-28T01:10:40.588Z,95599.09
2023-10-28T01:15:43.823Z,95594.00
2023-10-28T01:20:49.859Z,95590.53
2023-10-28T01:25:54.472Z,95583.28
2023-10-28T01:30:58.233Z,95584.09
2023-10-28T01:36:01.477Z,95585.75
2023-10-28T01:41:06.388Z,95585.78
2023-10-28T01:46:09.727Z,95588.41
2023-10-28T01:51:13.148Z,95586.78
2023-10-28T01:56:17.902Z,95593.38
2023-10-28T02:01:21.077Z,95590.84
2023-10-28T02:06:24.845Z,95593.50
2023-10-28T02:11:29.950Z,95592.97
2023-10-28T02:16:33.367Z,95584.91
2023-10-28T02:21:36.621Z,95579.28
2023-10-28T02:26:41.348Z,95584.41
2023-10-28T02:31:44.704Z,95587.72
2023-10-28T02:36:48.119Z,95595.00
2023-10-28T02:41:53.246Z,95587.09
2023-10-28T02:46:56.546Z,95591.84
2023-10-28T02:51:59.729Z,95583.75
2023-10-28T02:57:04.785Z,95587.72
2023-10-28T03:02:08.050Z,95597.31
2023-10-28T03:07:11.397Z,95602.25
2023-10-28T03:12:16.945Z,95596.28
2023-10-28T03:17:20.327Z,95600.75
2023-10-28T03:22:23.564Z,95594.66
2023-10-28T03:27:28.387Z,95590.53
2023-10-28T03:32:32.199Z,95597.16
2023-10-28T03:37:37.194Z,95592.19
2023-10-28T03:42:41.947Z,95593.03
2023-10-28T03:47:45.263Z,95599.50
2023-10-28T03:52:48.970Z,95602.63
2023-10-28T03:57:54.083Z,95604.94
2023-10-28T04:02:57.607Z,95614.69
2023-10-28T04:08:00.839Z,95615.19
2023-10-28T04:13:05.481Z,95617.31
2023-10-28T04:18:08.991Z,95618.66
2023-10-28T04:23:12.308Z,95609.53
2023-10-28T04:28:17.551Z,95608.56
2023-10-28T04:33:20.958Z,95611.53
2023-10-28T04:38:24.442Z,95623.28
2023-10-28T04:43:30.243Z,95618.97
2023-10-28T04:48:33.935Z,95631.03
2023-10-28T04:53:37.315Z,95626.06
2023-10-28T04:58:42.092Z,95630.72
2023-10-28T05:03:45.315Z,95631.53
2023-10-28T05:08:49.000Z,95631.53
2023-10-28T05:13:54.005Z,95635.66
2023-10-28T05:18:58.356Z,95637.81
2023-10-28T05:24:01.590Z,95655.19
2023-10-28T05:29:07.541Z,95652.69
2023-10-28T05:34:10.969Z,95653.00
2023-10-28T05:39:14.323Z,95660.97
2023-10-28T05:44:19.066Z,95665.91
2023-10-28T05:49:22.413Z,95670.19
2023-10-28T05:54:25.678Z,95676.97
2023-10-28T05:59:30.676Z,95689.88
2023-10-28T06:04:33.976Z,95698.78
2023-10-28T06:09:37.367Z,95706.56
2023-10-28T06:14:42.620Z,95720.28
2023-10-28T06:19:46.245Z,95717.97
2023-10-28T06:24:50.791Z,95738.94
2023-10-28T06:29:55.492Z,95738.47
2023-10-28T06:34:59.260Z,95734.50
2023-10-28T06:40:02.634Z,95751.19
2023-10-28T06:45:08.713Z,95753.00
2023-10-28T06:50:12.296Z,95757.16
2023-10-28T06:55:15.616Z,95769.53
2023-10-28T07:00:24.794Z,95779.31
2023-10-28T07:05:28.500Z,95792.25
2023-10-28T07:10:31.890Z,95798.66
2023-10-28T07:15:36.501Z,95807.81
2023-10-28T07:20:41.288Z,95809.22
2023-10-28T07:25:46.057Z,95823.00
2023-10-28T07:30:52.387Z,95833.09
2023-10-28T07:35:55.853Z,95833.44
2023-10-28T07:41:00.231Z,95843.50
2023-10-28T07:46:05.842Z,95847.66
2023-10-28T07:51:09.134Z,95852.75
2023-10-28T07:56:12.430Z,95863.47
2023-10-28T08:01:18.837Z,95861.06
2023-10-28T08:06:34.360Z,95868.50
2023-10-28T08:11:39.049Z,95852.44
2023-10-28T08:16:44.078Z,95867.69
2023-10-28T08:21:48.460Z,95864.69
2023-10-28T08:26:51.806Z,95879.88
2023-10-28T08:31:58.718Z,95875.75
2023-10-28T08:37:01.996Z,95876.28
2023-10-28T08:42:07.409Z,95887.94
2023-10-28T08:47:12.216Z,95882.84
2023-10-28T08:52:19.765Z,95882.81
2023-10-28T08:57:24.464Z,95889.56
2023-10-28T09:02:31.080Z,95894.50
2023-10-28T09:07:34.355Z,95896.44
2023-10-28T09:12:37.651Z,95907.84
2023-10-28T09:17:42.827Z,95904.47
2023-10-28T09:22:46.930Z,95906.00
2023-10-28T09:27:51.730Z,95904.31
2023-10-28T09:32:56.929Z,95909.97
2023-10-28T09:38:00.887Z,95915.81
2023-10-28T09:43:04.655Z,95920.97
2023-10-28T09:48:14.924Z,95933.50
2023-10-28T09:53:19.901Z,95928.06
2023-10-28T09:58:27.194Z,95924.59
2023-10-28T10:03:44.566Z,95915.44
2023-10-28T10:08:52.121Z,95924.44
2023-10-28T10:13:56.960Z,95930.53
2023-10-28T10:19:06.814Z,95926.59
2023-10-28T10:24:10.967Z,95929.34
2023-10-28T10:29:14.067Z,95930.94
2023-10-28T10:34:33.380Z,95930.28
2023-10-28T10:39:44.578Z,95935.63
2023-10-28T10:44:48.944Z,95927.88
2023-10-28T10:49:53.789Z,95934.41
2023-10-28T10:55:02.060Z,95923.78
2023-10-28T11:00:13.857Z,95927.25
2023-10-28T11:05:19.988Z,95927.19
2023-10-28T11:10:24.187Z,95931.19
2023-10-28T11:15:27.568Z,95928.53
2023-10-28T11:20:32.479Z,95931.97
2023-10-28T11:25:36.942Z,95932.44
2023-10-28T11:30:40.408Z,95926.28
2023-10-28T11:35:45.110Z,95920.38
2023-10-28T11:40:48.818Z,95915.13
2023-10-28T11:45:52.062Z,95920.09
2023-10-28T11:50:56.987Z,95933.31
2023-10-28T11:56:00.344Z,95923.34
2023-10-28T12:01:03.903Z,95929.94
2023-10-28T12:06:19.181Z,95930.00
2023-10-28T12:11:30.444Z,95931.72
2023-10-28T12:16:36.535Z,95938.69
2023-10-28T12:21:42.529Z,95947.56
2023-10-28T12:26:46.076Z,95932.22
2023-10-28T12:31:49.576Z,95939.19
2023-10-28T12:36:54.315Z,95947.31
2023-10-28T12:41:57.748Z,95944.66
2023-10-28T12:47:01.040Z,95934.94
2023-10-28T12:52:06.562Z,95940.97
2023-10-28T12:57:12.768Z,95943.81
2023-10-28T13:02:16.426Z,95941.16
2023-10-28T13:07:23.239Z,95949.16
2023-10-28T13:12:27.695Z,95944.41
2023-10-28T13:17:31.174Z,95944.16
2023-10-28T13:22:36.268Z,95948.81
2023-10-28T13:27:40.875Z,95952.97
2023-10-28T13:32:55.620Z,95956.72
2023-10-28T13:38:02.313Z,95951.91
2023-10-28T13:43:05.943Z,95945.16
2023-10-28T13:48:09.812Z,95946.00
2023-10-28T13:53:14.785Z,95947.94
2023-10-28T13:58:18.143Z,95950.09
2023-10-28T14:03:21.906Z,95944.44
2023-10-28T14:08:26.973Z,95949.16
2023-10-28T14:13:31.327Z,95961.31
2023-10-28T14:18:34.597Z,95959.44
2023-10-28T14:23:40.037Z,95971.97
2023-10-28T14:28:43.605Z,95975.69
2023-10-28T14:33:47.958Z,95975.22
2023-10-28T14:38:52.756Z,95979.31
2023-10-28T14:43:56.001Z,95972.34
2023-10-28T14:49:00.278Z,95965.72
2023-10-28T14:54:06.032Z,95963.78
2023-10-28T14:59:10.079Z,95960.44
2023-10-28T15:04:13.767Z,95957.31
2023-10-28T15:09:18.543Z,95981.28
2023-10-28T15:14:21.939Z,95967.69
2023-10-28T15:19:25.285Z,95976.66
2023-10-28T15:24:30.082Z,95978.06
2023-10-28T15:29:33.684Z,95981.06
2023-10-28T15:34:38.164Z,95983.38
2023-10-28T15:39:43.790Z,95971.44
2023-10-28T15:44:48.163Z,95953.06
2023-10-28T15:49:52.858Z,95963.88
2023-10-28T15:54:57.934Z,95981.09
2023-10-28T16:00:01.394Z,95991.69
2023-10-28T16:05:05.263Z,95982.41
2023-10-28T16:10:10.639Z,95988.88
2023-10-28T16:15:15.989Z,96001.59
2023-10-28T16:20:19.289Z,96008.34
2023-10-28T16:25:23.996Z,96003.38
2023-10-28T16:30:27.762Z,96007.31
2023-10-28T16:35:31.061Z,96007.25
2023-10-28T16:40:36.837Z,95994.13
2023-10-28T16:45:40.264Z,95998.63
2023-10-28T16:50:43.539Z,95990.06
2023-10-28T16:55:48.113Z,96003.84
2023-10-28T17:00:52.710Z,96002.41
2023-10-28T17:05:56.024Z,95998.75
2023-10-28T17:11:01.605Z,96002.59
2023-10-28T17:16:05.658Z,96004.38
2023-10-28T17:21:09.879Z,96019.97
2023-10-28T17:26:14.713Z,96026.63
2023-10-28T17:31:18.463Z,96041.16
2023-10-28T17:36:21.884Z,96041.66
2023-10-28T17:41:26.927Z,96041.19
2023-10-28T17:46:30.402Z,96034.41
2023-10-28T17:51:33.532Z,96029.25
2023-10-28T17:56:38.565Z,96037.03
2023-10-28T18:01:41.923Z,96021.47
2023-10-28T18:06:45.275Z,96036.66
2023-10-28T18:11:49.997Z,96050.72
2023-10-28T18:16:54.189Z,96047.25
2023-10-28T18:21:57.359Z,96056.00
2023-10-28T18:27:02.582Z,96051.34
2023-10-28T18:32:07.062Z,96047.91
2023-10-28T18:37:10.642Z,96056.03
2023-10-28T18:42:15.513Z,96057.03
2023-10-28T18:47:20.207Z,96058.72
2023-10-28T18:52:23.587Z,96059.16
2023-10-28T18:57:28.366Z,96066.78
2023-10-28T19:02:32.422Z,96065.00
2023-10-28T19:07:35.830Z,96053.41
2023-10-28T19:12:40.487Z,96069.94
2023-10-28T19:17:43.754Z,96073.97
2023-10-28T19:22:46.916Z,96073.81
2023-10-28T19:27:51.477Z,96076.13
2023-10-28T19:32:54.734Z,96067.97
2023-10-28T19:37:58.076Z,96065.00
2023-10-28T19:43:02.894Z,96083.41
2023-10-28T19:48:08.501Z,96082.41
2023-10-28T19:53:11.910Z,96095.47
2023-10-28T19:58:16.712Z,96086.88
2023-10-28T20:03:21.380Z,96073.44
2023-10-28T20:08:24.966Z,96062.72
2023-10-28T20:13:29.747Z,96076.13
2023-10-28T20:18:33.023Z,96072.16
2023-10-28T20:23:36.524Z,96070.47
2023-10-28T20:28:42.001Z,96066.00
2023-10-28T20:33:46.233Z,96065.53
2023-10-28T20:38:49.744Z,96061.06
2023-10-28T20:43:54.727Z,96049.44
2023-10-28T20:48:58.029Z,96040.53
2023-10-28T20:54:01.406Z,96034.91
2023-10-28T20:59:06.299Z,96034.41
2023-10-28T21:04:09.728Z,96029.94
2023-10-28T21:09:15.017Z,96031.28
2023-10-28T21:14:20.476Z,96045.66
2023-10-28T21:19:23.706Z,96048.00
2023-10-28T21:24:26.991Z,96039.03
2023-10-28T21:29:31.774Z,96045.53
2023-10-28T21:34:34.993Z,96038.38
2023-10-28T21:39:38.853Z,96041.38
2023-10-28T21:44:43.535Z,96051.94
2023-10-28T21:49:46.945Z,96053.13
2023-10-28T21:54:50.447Z,96049.00
2023-10-28T21:59:55.248Z,96065.69
2023-10-28T22:04:58.434Z,96058.56
2023-10-28T22:10:02.361Z,96060.25
2023-10-28T22:15:08.215Z,96057.75
2023-10-28T22:20:12.902Z,96052.94
2023-10-28T22:25:16.213Z,96043.34
2023-10-28T22:30:22.323Z,96040.84
2023-10-28T22:35:26.812Z,96039.53
2023-10-28T22:40:30.503Z,96040.13
2023-10-28T22:45:35.812Z,96025.75
2023-10-28T22:50:40.643Z,96022.75
2023-10-28T22:55:43.935Z,96025.44
2023-10-28T23:00:48.602Z,96024.75
2023-10-28T23:05:53.106Z,96035.34
2023-10-28T23:10:56.772Z,96037.03
2023-10-28T23:16:01.464Z,96033.03
2023-10-28T23:21:05.195Z,96039.84
2023-10-28T23:26:08.486Z,96026.63
2023-10-28T23:31:13.536Z,96029.75
2023-10-28T23:36:17.804Z,96027.59
2023-10-28T23:41:21.986Z,96024.94
2023-10-28T23:46:27.410Z,96036.03
2023-10-28T23:51:30.816Z,96027.28
2023-10-28T23:56:34.797Z,96028.44
